Portada
METAR-TAF:

METAR-TAF

Aeroports :

Bíldudalur, Islàndia

latitud: 65-38-30N, longitud: 23-32-45W, altitud: 8 m

Observació

L'informe es va fer fa 7 hores i 49 minuts, a les 16:00 UTC
Vent 5 kt del Nord/Nord-Est
Temperatura 7°C
Humitat 100%
Pressió 994 hPa
Visibilitat: 9000 m
Escasses núvols a una alçada de 1300 ft
Cel ennuvolat a una alçada de 1800 ft
Cel cobert a una alçada de 2200 ft
plugim, pluja,

METAR: BIBD 231600Z 02005KT 9000 DZRA FEW013 BKN018 OVC022 07/07 Q0994

Hora: 23:49 (23:49 UTC)

Pronòstic

L'informe es va fer fa 10 hores i 44 minuts, a les 13:05 UTC
Pronòstic vàlid del 23 a les 14 UTC al 23 a les 17 UTC
Vent 5 kt del Nord-Est
Visibilitat 10 km o més
Núvols disperses a una alçada de 1000 ft
Cel cobert a una alçada de 2000 ft
pluja,

TAF: BIBD 231305Z 2314/2317 04005KT 9999 -RA SCT010 OVC020

Observacions i pronòstics meteorològics de més de 4000 aeroports (METAR i TAF).

Les estacions disponibles són els punts grocs i vermells al mapa.

Posi el ratolí al punt desitjat per veure el nom de l'estació.

Feu clic per veure les observacions i els pronòstics meteorològics.

Per canviar el mapa: feu clic els botons verds amb una creu de color negre per apropar; al botó verd amb un guió per allunyar la imatge; o en les fletxes verdes per a mapes adjacents.


METAR-TAF: